createdAt,value
2018-03-31T00:00:27.349Z,21.03
2018-03-31T00:02:54.487Z,21.63
2018-03-31T00:05:21.468Z,19.30
2018-03-31T00:07:48.455Z,18.53
2018-03-31T00:10:15.437Z,19.00
2018-03-31T00:12:42.426Z,17.57
2018-03-31T00:15:09.497Z,20.23
2018-03-31T00:17:36.481Z,19.80
2018-03-31T00:20:03.539Z,20.70
2018-03-31T00:22:30.598Z,21.87
2018-03-31T00:24:57.696Z,19.70
2018-03-31T00:27:24.682Z,21.27
2018-03-31T00:29:51.714Z,20.97
2018-03-31T00:32:18.843Z,19.60
2018-03-31T00:34:45.826Z,20.37
2018-03-31T00:37:12.864Z,20.97
2018-03-31T00:39:39.999Z,22.27
2018-03-31T00:42:07.057Z,20.63
2018-03-31T00:44:34.077Z,20.03
2018-03-31T00:47:01.146Z,24.93
2018-03-31T00:49:28.130Z,21.87
2018-03-31T00:51:55.217Z,22.90
2018-03-31T00:54:22.209Z,19.53
2018-03-31T00:56:49.203Z,23.13
2018-03-31T00:59:16.184Z,22.70
2018-03-31T01:01:43.205Z,21.07
2018-03-31T01:04:10.183Z,23.90
2018-03-31T01:06:37.171Z,23.90
2018-03-31T01:09:04.153Z,23.93
2018-03-31T01:11:31.134Z,19.70
2018-03-31T01:13:58.109Z,24.43
2018-03-31T01:16:25.101Z,23.43
2018-03-31T01:18:52.101Z,18.63
2018-03-31T01:21:19.076Z,21.70
2018-03-31T01:23:46.127Z,23.90
2018-03-31T01:26:13.201Z,23.33
2018-03-31T01:28:40.191Z,22.53
2018-03-31T01:31:07.181Z,23.33
2018-03-31T01:33:34.214Z,21.73
2018-03-31T01:36:01.189Z,22.83
2018-03-31T01:38:28.179Z,22.93
2018-03-31T01:40:55.251Z,21.53
2018-03-31T01:43:22.247Z,22.43
2018-03-31T01:45:49.239Z,20.63
2018-03-31T01:48:16.291Z,19.87
2018-03-31T01:50:43.274Z,25.73
2018-03-31T01:53:10.260Z,23.77
2018-03-31T01:55:37.336Z,24.77
2018-03-31T01:58:04.383Z,22.90
2018-03-31T02:00:31.372Z,19.37
2018-03-31T02:02:58.477Z,23.53
2018-03-31T02:05:25.702Z,21.57
2018-03-31T02:07:52.757Z,23.00
2018-03-31T02:10:20.037Z,26.07
2018-03-31T02:12:47.121Z,22.37
2018-03-31T02:15:14.230Z,24.50
2018-03-31T02:17:41.209Z,20.53
2018-03-31T02:20:08.375Z,20.90
2018-03-31T02:22:35.362Z,23.20
2018-03-31T02:25:02.431Z,22.73
2018-03-31T02:27:29.478Z,22.03
2018-03-31T02:29:56.690Z,22.07
2018-03-31T02:32:23.680Z,23.27
2018-03-31T02:34:50.927Z,22.90
2018-03-31T02:37:17.907Z,22.10
2018-03-31T02:39:44.893Z,22.13
2018-03-31T02:42:11.968Z,20.27
2018-03-31T02:44:39.198Z,21.73
2018-03-31T02:47:06.178Z,22.67
2018-03-31T02:49:33.212Z,22.27
2018-03-31T02:52:00.312Z,21.33
2018-03-31T02:54:27.343Z,21.63
2018-03-31T02:56:54.325Z,21.83
2018-03-31T02:59:21.321Z,25.07
2018-03-31T03:01:48.298Z,23.47
2018-03-31T03:04:15.297Z,22.87
2018-03-31T03:06:42.265Z,19.47
2018-03-31T03:09:09.251Z,23.07
2018-03-31T03:11:36.221Z,20.87
2018-03-31T03:14:03.216Z,24.17
2018-03-31T03:16:30.214Z,20.70
2018-03-31T03:18:57.278Z,21.37
2018-03-31T03:21:24.325Z,24.03
2018-03-31T03:23:51.373Z,22.60
2018-03-31T03:26:18.353Z,20.97
2018-03-31T03:28:45.334Z,18.10
2018-03-31T03:31:12.604Z,22.67
2018-03-31T03:33:39.670Z,22.47
2018-03-31T03:36:06.646Z,20.73
2018-03-31T03:38:33.632Z,24.73
2018-03-31T03:41:00.638Z,20.23
2018-03-31T03:43:27.653Z,20.67
2018-03-31T03:45:54.635Z,21.53
2018-03-31T03:48:21.629Z,23.80
2018-03-31T03:50:48.613Z,23.07
2018-03-31T03:53:15.601Z,21.27
2018-03-31T03:55:42.573Z,21.27
2018-03-31T03:58:09.569Z,24.40
2018-03-31T04:00:36.569Z,18.83
2018-03-31T04:03:03.553Z,22.87
2018-03-31T04:05:30.545Z,21.13
2018-03-31T04:07:57.521Z,23.17
2018-03-31T04:10:24.497Z,23.43
2018-03-31T04:12:51.470Z,20.70
2018-03-31T04:15:18.445Z,22.23
2018-03-31T04:17:45.440Z,21.17
2018-03-31T04:20:12.425Z,21.13
2018-03-31T04:22:39.430Z,20.47
2018-03-31T04:25:06.464Z,21.60
2018-03-31T04:27:33.452Z,18.90
2018-03-31T04:30:00.525Z,22.07
2018-03-31T04:32:27.579Z,20.63
2018-03-31T04:34:54.566Z,23.07
2018-03-31T04:37:21.554Z,24.50
2018-03-31T04:39:48.532Z,22.80
2018-03-31T04:42:15.510Z,20.73
2018-03-31T04:44:42.508Z,22.03
2018-03-31T04:47:09.524Z,24.77
2018-03-31T04:49:36.517Z,23.23
2018-03-31T04:52:03.496Z,23.87
2018-03-31T04:54:30.478Z,24.13
2018-03-31T04:56:57.456Z,21.13
2018-03-31T04:59:24.498Z,22.23
2018-03-31T05:01:51.482Z,22.20
2018-03-31T05:04:18.500Z,22.53
2018-03-31T05:06:45.495Z,24.20
2018-03-31T05:09:12.487Z,21.57
2018-03-31T05:11:39.470Z,23.37
2018-03-31T05:14:06.450Z,22.43
2018-03-31T05:16:33.502Z,22.30
2018-03-31T05:19:00.870Z,26.50
2018-03-31T05:21:27.921Z,23.10
2018-03-31T05:23:54.911Z,24.77
2018-03-31T05:26:21.932Z,24.57
2018-03-31T05:28:48.928Z,23.73
2018-03-31T05:31:15.918Z,24.73
2018-03-31T05:33:42.971Z,23.43
2018-03-31T05:36:09.958Z,22.10
2018-03-31T05:38:36.950Z,22.77
2018-03-31T05:41:03.947Z,21.27
2018-03-31T05:43:30.971Z,22.33
2018-03-31T05:45:58.005Z,20.93
2018-03-31T05:48:24.985Z,23.27
2018-03-31T05:50:51.969Z,21.97
2018-03-31T05:53:18.968Z,30.93
2018-03-31T05:55:45.964Z,22.90
2018-03-31T05:58:12.958Z,25.20
2018-03-31T06:00:39.987Z,21.57
2018-03-31T06:03:06.965Z,23.37
2018-03-31T06:05:33.945Z,25.97
2018-03-31T06:08:01.024Z,21.53
2018-03-31T06:10:28.084Z,24.90
2018-03-31T06:12:55.061Z,22.13
2018-03-31T06:15:22.037Z,20.53
2018-03-31T06:17:49.116Z,24.20
2018-03-31T06:20:16.101Z,25.67
2018-03-31T06:22:43.077Z,22.50
2018-03-31T06:25:10.057Z,22.50
2018-03-31T06:27:37.034Z,26.67
2018-03-31T06:30:04.021Z,23.23
2018-03-31T06:32:31.015Z,21.10
2018-03-31T06:34:58.010Z,23.63
2018-03-31T06:37:25.048Z,25.90
2018-03-31T06:39:52.012Z,26.23
2018-03-31T06:42:19.009Z,21.83
2018-03-31T06:44:45.996Z,25.60
2018-03-31T06:47:13.007Z,25.33
2018-03-31T06:49:39.998Z,25.27
2018-03-31T06:52:06.984Z,25.97
2018-03-31T06:54:34.018Z,24.47
2018-03-31T06:57:01.004Z,24.63
2018-03-31T06:59:28.116Z,26.93
2018-03-31T07:01:55.149Z,23.27
2018-03-31T07:04:22.133Z,24.00
2018-03-31T07:06:49.165Z,24.00
2018-03-31T07:09:16.154Z,23.53
2018-03-31T07:11:43.155Z,24.17
2018-03-31T07:14:10.133Z,27.13
2018-03-31T07:16:37.108Z,29.67
2018-03-31T07:19:04.187Z,25.50
2018-03-31T07:21:31.234Z,25.47
2018-03-31T07:23:58.209Z,24.30
2018-03-31T07:26:25.229Z,28.90
2018-03-31T07:28:52.224Z,26.37
2018-03-31T07:31:19.201Z,25.97
2018-03-31T07:33:46.185Z,27.37
2018-03-31T07:36:13.157Z,24.23
2018-03-31T07:38:40.138Z,26.70
2018-03-31T07:41:07.121Z,28.60
2018-03-31T07:43:34.093Z,29.60
2018-03-31T07:46:01.090Z,27.57
2018-03-31T07:48:28.166Z,29.80
2018-03-31T07:50:55.150Z,28.03
2018-03-31T07:53:22.133Z,28.10
2018-03-31T07:55:49.122Z,26.93
2018-03-31T07:58:16.093Z,24.83
2018-03-31T08:00:43.188Z,28.37
2018-03-31T08:03:10.236Z,30.20
2018-03-31T08:05:37.225Z,28.43
2018-03-31T08:08:04.333Z,31.97
2018-03-31T08:10:31.346Z,30.07
2018-03-31T08:12:58.326Z,28.83
2018-03-31T08:15:25.373Z,32.43
2018-03-31T08:17:52.349Z,36.00
2018-03-31T08:20:19.335Z,29.20
2018-03-31T08:22:46.330Z,27.70
2018-03-31T08:25:13.325Z,32.73
2018-03-31T08:27:40.318Z,31.93
2018-03-31T08:30:07.293Z,29.43
2018-03-31T08:32:34.269Z,33.10
2018-03-31T08:35:01.273Z,31.33
2018-03-31T08:37:28.296Z,27.10
2018-03-31T08:39:55.278Z,33.17
2018-03-31T08:42:22.254Z,31.83
2018-03-31T08:44:49.242Z,32.90
2018-03-31T08:47:16.261Z,31.53
2018-03-31T08:49:43.241Z,29.90
2018-03-31T08:52:10.226Z,30.30
2018-03-31T08:54:37.220Z,32.30
2018-03-31T08:57:04.193Z,31.87
2018-03-31T08:59:31.181Z,29.83
2018-03-31T09:01:58.179Z,34.00
2018-03-31T09:04:25.177Z,35.43
2018-03-31T09:06:52.166Z,30.70
2018-03-31T09:09:19.197Z,35.17
2018-03-31T09:11:46.159Z,32.10
2018-03-31T09:14:13.146Z,34.07
2018-03-31T09:16:40.168Z,33.37
2018-03-31T09:19:07.155Z,32.37
2018-03-31T09:21:34.241Z,35.00
2018-03-31T09:24:01.224Z,34.57
2018-03-31T09:26:28.225Z,37.83
2018-03-31T09:28:55.211Z,34.23
2018-03-31T09:31:22.193Z,37.63
2018-03-31T09:33:49.189Z,34.90
2018-03-31T09:36:16.215Z,31.60
2018-03-31T09:38:43.196Z,32.73
2018-03-31T09:41:10.174Z,33.97
2018-03-31T09:43:37.262Z,33.30
2018-03-31T09:46:04.253Z,34.03
2018-03-31T09:48:31.252Z,33.17
2018-03-31T09:50:58.296Z,31.50
2018-03-31T09:53:25.282Z,27.50
2018-03-31T09:55:52.262Z,33.23
2018-03-31T09:58:19.239Z,33.77
2018-03-31T10:00:46.229Z,32.47
2018-03-31T10:03:13.321Z,35.43
2018-03-31T10:05:40.313Z,34.37
2018-03-31T10:08:07.303Z,32.97
2018-03-31T10:10:34.288Z,31.50
2018-03-31T10:13:01.310Z,32.53
2018-03-31T10:15:28.370Z,33.60
2018-03-31T10:17:55.352Z,35.93
2018-03-31T10:20:22.364Z,32.33
2018-03-31T10:22:49.345Z,35.07
2018-03-31T10:25:16.461Z,31.67
2018-03-31T10:27:43.477Z,33.73
2018-03-31T10:30:10.474Z,35.67
2018-03-31T10:32:37.468Z,33.77
2018-03-31T10:35:04.545Z,36.67
2018-03-31T10:37:31.528Z,34.00
2018-03-31T10:39:58.527Z,33.07
2018-03-31T10:42:25.520Z,37.10
2018-03-31T10:44:52.522Z,33.63
2018-03-31T10:47:19.540Z,32.13
2018-03-31T10:49:46.577Z,33.27
2018-03-31T10:52:13.579Z,35.73
2018-03-31T10:54:40.566Z,36.10
2018-03-31T10:57:07.571Z,37.43
2018-03-31T10:59:34.586Z,37.03
2018-03-31T11:02:01.578Z,38.33
2018-03-31T11:04:28.571Z,35.73
2018-03-31T11:06:55.562Z,34.43
2018-03-31T11:09:22.547Z,36.23
2018-03-31T11:11:49.531Z,35.40
2018-03-31T11:14:16.545Z,37.17
2018-03-31T11:16:43.648Z,32.67
2018-03-31T11:19:10.694Z,34.17
2018-03-31T11:21:37.680Z,37.40
2018-03-31T11:24:04.661Z,37.27
2018-03-31T11:26:31.670Z,35.40
2018-03-31T11:28:58.670Z,37.80
2018-03-31T11:31:25.718Z,35.07
2018-03-31T11:33:52.710Z,31.33
2018-03-31T11:36:19.702Z,36.63
2018-03-31T11:38:46.687Z,33.03
2018-03-31T11:41:13.724Z,35.30
2018-03-31T11:43:40.706Z,35.53
2018-03-31T11:46:07.708Z,34.77
2018-03-31T11:48:34.690Z,33.37
2018-03-31T11:51:01.711Z,37.93
2018-03-31T11:53:28.710Z,34.73
2018-03-31T11:55:55.736Z,36.50
2018-03-31T11:58:23.672Z,35.83
2018-03-31T12:00:50.705Z,33.53
2018-03-31T12:03:17.695Z,31.27
2018-03-31T12:05:44.694Z,33.03
2018-03-31T12:08:11.693Z,32.50
2018-03-31T12:10:38.677Z,35.17
2018-03-31T12:13:05.685Z,35.80
2018-03-31T12:15:32.681Z,33.00
2018-03-31T12:17:59.719Z,36.47
2018-03-31T12:20:26.728Z,33.97
2018-03-31T12:22:53.742Z,30.10
2018-03-31T12:25:20.896Z,34.33
2018-03-31T12:27:47.881Z,31.77
2018-03-31T12:30:14.906Z,31.03
2018-03-31T12:32:41.974Z,36.07
2018-03-31T12:35:09.087Z,34.97
2018-03-31T12:37:36.131Z,33.67
2018-03-31T12:40:03.137Z,32.70
2018-03-31T12:42:30.232Z,34.37
2018-03-31T12:44:57.248Z,31.30
2018-03-31T12:47:24.261Z,31.23
2018-03-31T12:49:51.282Z,35.00
2018-03-31T12:52:18.300Z,33.57
2018-03-31T12:54:45.311Z,33.77
2018-03-31T12:57:12.397Z,33.27
2018-03-31T12:59:39.382Z,33.63
2018-03-31T13:02:06.371Z,33.13
2018-03-31T13:04:33.354Z,33.03
2018-03-31T13:07:00.329Z,29.67
2018-03-31T13:09:27.330Z,34.57
2018-03-31T13:11:54.313Z,36.20
2018-03-31T13:14:21.312Z,34.20
2018-03-31T13:16:48.340Z,32.80
2018-03-31T13:19:15.332Z,33.50
2018-03-31T13:21:42.378Z,32.90
2018-03-31T13:24:09.378Z,34.93
2018-03-31T13:26:36.476Z,34.00
2018-03-31T13:29:03.463Z,35.40
2018-03-31T13:31:30.454Z,35.60
2018-03-31T13:33:57.515Z,35.40
2018-03-31T13:36:24.491Z,36.00
2018-03-31T13:38:51.509Z,36.10
2018-03-31T13:41:18.498Z,34.37
2018-03-31T13:43:45.487Z,34.30
2018-03-31T13:46:12.476Z,34.80
2018-03-31T15:10:35.904Z,39.87
2018-03-31T15:13:02.891Z,45.43
2018-03-31T15:15:29.973Z,45.80
2018-03-31T15:17:56.981Z,44.13
2018-03-31T15:20:24.037Z,39.77
2018-03-31T15:22:51.037Z,43.60
2018-03-31T15:25:18.026Z,42.43
2018-03-31T15:27:45.023Z,42.67
2018-03-31T15:30:12.845Z,44.30
2018-03-31T15:32:39.926Z,41.90
2018-03-31T15:35:07.070Z,43.37
2018-03-31T15:37:34.064Z,43.67
2018-03-31T15:40:01.222Z,45.77
2018-03-31T15:42:28.172Z,43.20
2018-03-31T15:44:55.163Z,43.27
2018-03-31T15:47:22.153Z,45.80
2018-03-31T15:49:49.261Z,43.00
2018-03-31T15:52:16.237Z,42.17
2018-03-31T17:16:40.305Z,45.40
2018-03-31T17:19:07.515Z,45.87
2018-03-31T17:21:34.995Z,49.50
2018-03-31T17:24:01.973Z,48.67
2018-03-31T17:26:29.050Z,46.47
2018-03-31T17:28:56.034Z,50.30
2018-03-31T17:31:23.457Z,49.27
2018-03-31T17:33:50.576Z,47.83
2018-03-31T17:36:17.559Z,48.13
2018-03-31T17:38:44.701Z,48.57
2018-03-31T17:41:11.859Z,51.23
2018-03-31T17:43:39.005Z,52.73
2018-03-31T17:46:06.050Z,49.33
2018-03-31T17:48:34.029Z,49.07
2018-03-31T17:51:01.039Z,51.33
2018-03-31T17:53:28.051Z,50.40
2018-03-31T17:55:55.171Z,53.40
2018-03-31T17:58:22.224Z,52.63
2018-03-31T18:00:49.277Z,51.03
2018-03-31T18:03:16.260Z,52.40
2018-03-31T18:05:43.303Z,50.93
2018-03-31T18:08:10.417Z,50.73
2018-03-31T18:10:37.420Z,48.73
2018-03-31T18:13:04.425Z,48.87
2018-03-31T18:15:31.409Z,53.10
2018-03-31T18:17:58.399Z,51.80
2018-03-31T18:20:25.387Z,56.03
2018-03-31T18:22:52.384Z,54.60
2018-03-31T18:25:19.382Z,55.40
2018-03-31T18:27:46.499Z,58.50
2018-03-31T18:30:13.495Z,55.83
2018-03-31T18:32:40.487Z,58.77
2018-03-31T18:35:07.490Z,55.87
2018-03-31T18:37:34.481Z,54.83
2018-03-31T18:40:01.484Z,56.20
2018-03-31T18:42:28.479Z,54.77
2018-03-31T18:44:55.480Z,55.10
2018-03-31T18:47:22.488Z,52.17
2018-03-31T18:49:49.470Z,49.80
2018-03-31T18:52:16.463Z,48.17
2018-03-31T18:54:43.598Z,53.00
2018-03-31T18:57:10.601Z,53.33
2018-03-31T18:59:37.599Z,51.73
2018-03-31T19:02:04.606Z,56.97
2018-03-31T19:04:32.260Z,49.73
2018-03-31T19:06:59.285Z,49.83
2018-03-31T19:09:26.298Z,52.37
2018-03-31T19:11:53.291Z,50.20
2018-03-31T19:14:20.308Z,49.00
2018-03-31T19:16:52.972Z,51.60
2018-03-31T19:19:19.996Z,45.20
2018-03-31T19:21:47.006Z,45.07
2018-03-31T19:24:14.026Z,43.63
2018-03-31T19:26:41.063Z,44.40
2018-03-31T19:29:08.101Z,41.87
2018-03-31T19:31:35.256Z,41.00
2018-03-31T19:34:02.272Z,35.93
2018-03-31T19:36:29.277Z,38.93
2018-03-31T19:38:56.911Z,36.93
2018-03-31T19:41:23.955Z,35.17
2018-03-31T19:43:51.041Z,36.17
2018-03-31T19:46:18.033Z,37.57
2018-03-31T19:48:45.957Z,38.93
2018-03-31T19:51:12.970Z,36.27
2018-03-31T19:53:40.135Z,37.67
2018-03-31T19:56:07.272Z,36.67
2018-03-31T19:58:34.455Z,38.47
2018-03-31T20:01:01.453Z,40.93
2018-03-31T20:03:28.511Z,37.77
2018-03-31T20:05:55.754Z,40.20
2018-03-31T20:08:22.753Z,41.63
2018-03-31T20:10:49.762Z,41.63
2018-03-31T20:13:16.790Z,40.60
2018-03-31T20:15:44.031Z,39.47
2018-03-31T20:18:11.149Z,42.50
2018-03-31T20:20:38.172Z,47.33
2018-03-31T20:44:00.083Z,40.43
2018-03-31T20:46:27.080Z,36.63
2018-03-31T20:48:54.081Z,40.30
2018-03-31T20:51:21.075Z,36.10
2018-03-31T20:53:48.063Z,37.30
2018-03-31T20:56:15.038Z,36.63
2018-03-31T20:58:42.044Z,37.77
2018-03-31T21:01:09.063Z,36.03
2018-03-31T21:03:36.075Z,36.67
2018-03-31T21:06:03.281Z,34.50
2018-03-31T21:08:30.296Z,32.63
2018-03-31T21:10:57.324Z,33.40
2018-03-31T21:13:24.309Z,34.90
2018-03-31T21:15:51.315Z,36.57
2018-03-31T21:18:18.294Z,38.27
2018-03-31T21:20:45.372Z,34.77
2018-03-31T21:23:12.358Z,33.77
2018-03-31T21:25:39.436Z,35.03
2018-03-31T21:28:06.418Z,34.20
2018-03-31T21:30:33.408Z,37.87
2018-03-31T21:33:00.420Z,37.83
2018-03-31T21:35:27.410Z,30.50
2018-03-31T21:37:54.472Z,31.00
2018-03-31T21:40:21.457Z,29.37
2018-03-31T21:42:48.463Z,31.57
2018-03-31T21:45:15.446Z,29.17
2018-03-31T21:47:42.432Z,26.40
2018-03-31T21:50:09.421Z,28.33
2018-03-31T21:52:36.400Z,29.07
2018-03-31T21:55:03.397Z,30.70
2018-03-31T21:57:30.463Z,30.30
2018-03-31T21:59:57.463Z,28.57
2018-03-31T22:02:24.460Z,28.47
2018-03-31T22:04:51.453Z,27.67
2018-03-31T22:07:18.466Z,26.77
2018-03-31T22:09:45.445Z,23.60
2018-03-31T22:12:12.444Z,23.00
2018-03-31T22:14:44.902Z,22.93
2018-03-31T22:17:11.885Z,25.90
2018-03-31T22:19:38.877Z,26.93
2018-03-31T22:22:05.864Z,26.40
2018-03-31T22:24:32.860Z,25.67
2018-03-31T22:26:59.939Z,22.83
2018-03-31T22:29:26.926Z,22.03
2018-03-31T22:31:53.931Z,22.70
2018-03-31T22:34:20.954Z,23.23
2018-03-31T22:36:47.958Z,22.73
2018-03-31T22:39:14.993Z,20.40
2018-03-31T22:41:42.002Z,19.60
2018-03-31T22:44:09.064Z,19.70
2018-03-31T22:46:36.050Z,20.23
2018-03-31T22:49:03.075Z,20.77
2018-03-31T22:51:30.109Z,17.90
2018-03-31T22:53:57.346Z,16.87
2018-03-31T22:56:24.349Z,17.77
2018-03-31T22:58:51.341Z,18.43
2018-03-31T23:01:18.339Z,17.93
2018-03-31T23:03:45.335Z,19.23
2018-03-31T23:06:12.327Z,19.07
2018-03-31T23:08:39.310Z,16.83
2018-03-31T23:11:06.319Z,16.73
2018-03-31T23:13:33.316Z,16.40
2018-03-31T23:16:00.328Z,17.43
2018-03-31T23:18:27.339Z,14.17
2018-03-31T23:20:54.321Z,16.43
2018-03-31T23:23:21.305Z,14.33
2018-03-31T23:25:48.302Z,15.07
2018-03-31T23:28:15.299Z,11.57
2018-03-31T23:30:42.285Z,12.50
2018-03-31T23:33:09.274Z,12.57
2018-03-31T23:35:36.263Z,12.83
2018-03-31T23:38:03.238Z,10.07
2018-03-31T23:40:30.229Z,10.20
2018-03-31T23:42:57.206Z,10.43
2018-03-31T23:45:24.197Z,9.80
2018-03-31T23:47:51.176Z,11.97
2018-03-31T23:50:18.190Z,10.10
2018-03-31T23:52:45.161Z,10.53
2018-03-31T23:55:12.156Z,9.87
2018-03-31T23:57:39.183Z,11.23
